createdAt,value
2023-03-05T00:00:26.417Z,48.05
2023-03-05T00:01:49.249Z,48.31
2023-03-05T00:02:52.173Z,47.96
2023-03-05T00:03:56.704Z,48.12
2023-03-05T00:04:59.675Z,48.08
2023-03-05T00:06:02.764Z,48.12
2023-03-05T00:07:06.001Z,48.07
2023-03-05T00:08:08.942Z,48.26
2023-03-05T00:09:11.748Z,48.18
2023-03-05T00:10:14.621Z,48.07
2023-03-05T00:11:17.484Z,48.18
2023-03-05T00:12:20.380Z,48.21
2023-03-05T00:13:23.486Z,48.35
2023-03-05T00:14:26.416Z,48.28
2023-03-05T00:15:29.333Z,48.10
2023-03-05T00:16:33.188Z,48.26
2023-03-05T00:17:36.268Z,48.34
2023-03-05T00:18:39.545Z,48.31
2023-03-05T00:19:42.390Z,48.38
2023-03-05T00:20:45.988Z,48.45
2023-03-05T00:21:49.093Z,48.32
2023-03-05T00:22:51.929Z,48.44
2023-03-05T00:23:55.705Z,48.61
2023-03-05T00:24:58.497Z,48.35
2023-03-05T00:26:02.678Z,48.46
2023-03-05T00:27:05.690Z,48.49
2023-03-05T00:28:09.271Z,48.67
2023-03-05T00:29:21.938Z,48.58
2023-03-05T00:30:24.789Z,48.49
2023-03-05T00:31:31.481Z,48.84
2023-03-05T00:32:36.423Z,48.70
2023-03-05T00:33:39.316Z,48.62
2023-03-05T00:34:42.314Z,48.54
2023-03-05T00:35:46.676Z,48.81
2023-03-05T00:36:52.028Z,48.73
2023-03-05T00:37:56.252Z,48.90
2023-03-05T00:38:59.440Z,48.67
2023-03-05T00:40:03.864Z,48.71
2023-03-05T00:41:06.835Z,48.87
2023-03-05T00:42:09.809Z,48.95
2023-03-05T00:43:12.701Z,48.82
2023-03-05T00:44:15.938Z,49.04
2023-03-05T00:45:18.882Z,48.82
2023-03-05T00:46:23.208Z,49.03
2023-03-05T00:47:26.072Z,49.11
2023-03-05T00:48:28.948Z,48.99
2023-03-05T00:49:31.823Z,49.21
2023-03-05T00:50:34.660Z,49.23
2023-03-05T00:51:37.667Z,49.38
2023-03-05T00:52:40.821Z,49.54
2023-03-05T00:53:44.849Z,49.67
2023-03-05T00:54:47.731Z,49.44
2023-03-05T00:55:50.570Z,49.65
2023-03-05T00:56:53.656Z,49.58
2023-03-05T00:57:56.777Z,49.74
2023-03-05T00:58:59.735Z,49.74
2023-03-05T01:00:02.680Z,49.94
2023-03-05T01:01:06.506Z,50.09
2023-03-05T01:02:09.819Z,50.14
2023-03-05T01:03:13.183Z,50.04
2023-03-05T01:04:16.044Z,50.21
2023-03-05T01:05:19.153Z,50.61
2023-03-05T01:06:22.311Z,50.40
2023-03-05T01:07:25.269Z,50.55
2023-03-05T01:08:28.366Z,50.63
2023-03-05T01:09:31.536Z,50.88
2023-03-05T01:10:34.831Z,51.27
2023-03-05T01:11:37.784Z,50.94
2023-03-05T01:12:40.691Z,51.07
2023-03-05T01:13:43.732Z,51.12
2023-03-05T01:14:46.817Z,51.23
2023-03-05T01:15:51.113Z,51.43
2023-03-05T01:16:54.296Z,51.35
2023-03-05T01:17:57.154Z,51.56
2023-03-05T01:19:00.157Z,51.12
2023-03-05T01:20:04.230Z,51.32
2023-03-05T01:21:07.499Z,51.48
2023-03-05T01:22:10.745Z,51.68
2023-03-05T01:23:13.995Z,51.62
2023-03-05T01:24:16.865Z,51.40
2023-03-05T01:25:20.201Z,51.62
2023-03-05T01:26:23.011Z,51.89
2023-03-05T01:27:26.186Z,51.88
2023-03-05T01:28:29.415Z,51.59
2023-03-05T01:29:32.273Z,51.65
2023-03-05T01:30:35.732Z,51.81
2023-03-05T01:31:38.956Z,51.96
2023-03-05T01:32:42.877Z,51.89
2023-03-05T01:33:45.846Z,51.90
2023-03-05T01:34:49.020Z,52.10
2023-03-05T01:35:52.094Z,52.26
2023-03-05T01:36:55.020Z,52.19
2023-03-05T01:37:58.089Z,52.05
2023-03-05T01:39:01.500Z,52.07
2023-03-05T01:40:06.314Z,52.12
2023-03-05T01:41:10.925Z,52.24
2023-03-05T01:42:13.808Z,52.26
2023-03-05T01:43:34.700Z,52.27
2023-03-05T01:44:37.496Z,52.33
2023-03-05T01:46:19.100Z,52.37
2023-03-05T01:47:21.977Z,52.50
2023-03-05T01:48:25.313Z,52.66
2023-03-05T01:49:38.848Z,52.75
2023-03-05T01:50:41.845Z,52.80
2023-03-05T01:51:50.842Z,52.82
2023-03-05T01:52:59.576Z,52.85
2023-03-05T01:54:05.930Z,52.87
2023-03-05T01:55:14.942Z,53.33
2023-03-05T01:56:17.983Z,53.41
2023-03-05T01:57:26.548Z,53.57
2023-03-05T01:58:29.583Z,53.59
2023-03-05T01:59:33.512Z,54.07
2023-03-05T02:00:52.718Z,54.09
2023-03-05T02:01:58.585Z,54.17
2023-03-05T02:03:07.493Z,54.54
2023-03-05T02:04:15.472Z,54.61
2023-03-05T02:05:31.575Z,54.72
2023-03-05T02:06:34.956Z,54.84
2023-03-05T02:07:40.195Z,54.96
2023-03-05T02:08:43.060Z,54.94
2023-03-05T02:09:46.024Z,55.20
2023-03-05T02:10:51.695Z,55.28
2023-03-05T02:11:56.509Z,55.32
2023-03-05T02:13:02.052Z,55.47
2023-03-05T02:14:05.533Z,55.29
2023-03-05T02:15:09.487Z,55.63
2023-03-05T02:16:12.854Z,55.77
2023-03-05T02:17:16.112Z,55.78
2023-03-05T02:18:23.000Z,55.87
2023-03-05T02:19:26.029Z,55.88
2023-03-05T02:20:42.362Z,56.30
2023-03-05T02:21:48.203Z,56.16
2023-03-05T02:22:51.190Z,56.33
2023-03-05T02:23:54.389Z,56.38
2023-03-05T02:24:57.450Z,56.52
2023-03-05T02:26:00.603Z,56.65
2023-03-05T02:27:05.033Z,56.70
2023-03-05T02:28:28.331Z,56.57
2023-03-05T02:29:32.968Z,56.56
2023-03-05T02:32:04.613Z,57.11
2023-03-05T02:33:08.339Z,57.14
2023-03-05T02:34:11.433Z,57.40
2023-03-05T02:35:14.477Z,57.42
2023-03-05T02:36:18.725Z,57.40
2023-03-05T02:37:21.882Z,57.30
2023-03-05T02:38:28.076Z,57.38
2023-03-05T02:39:34.100Z,57.75
2023-03-05T02:40:36.959Z,57.56
2023-03-05T02:41:40.208Z,57.55
2023-03-05T02:42:43.727Z,57.95
2023-03-05T02:43:48.040Z,57.77
2023-03-05T02:44:51.009Z,57.72
2023-03-05T02:45:53.960Z,57.87
2023-03-05T02:46:57.141Z,58.10
2023-03-05T02:48:02.894Z,58.04
2023-03-05T02:49:05.833Z,58.37
2023-03-05T02:50:11.274Z,58.36
2023-03-05T02:51:16.394Z,58.28
2023-03-05T02:52:23.193Z,58.22
2023-03-05T02:53:27.321Z,58.26
2023-03-05T02:54:30.175Z,58.26
2023-03-05T02:55:33.269Z,58.58
2023-03-05T02:56:38.391Z,58.43
2023-03-05T02:57:41.726Z,58.33
2023-03-05T02:58:44.725Z,58.38
2023-03-05T02:59:48.077Z,58.66
2023-03-05T03:00:51.982Z,58.52
2023-03-05T03:01:55.263Z,58.66
2023-03-05T03:02:58.452Z,58.34
2023-03-05T03:04:01.539Z,58.74
2023-03-05T03:05:05.064Z,58.63
2023-03-05T03:06:08.003Z,59.06
2023-03-05T03:07:14.742Z,58.77
2023-03-05T03:08:17.700Z,59.07
2023-03-05T03:09:21.025Z,58.88
2023-03-05T03:10:23.916Z,59.14
2023-03-05T03:11:26.752Z,58.78
2023-03-05T03:12:29.600Z,58.90
2023-03-05T03:13:32.497Z,59.13
2023-03-05T03:14:39.206Z,58.92
2023-03-05T03:15:42.128Z,59.14
2023-03-05T03:16:45.013Z,59.16
2023-03-05T03:17:48.135Z,59.19
2023-03-05T03:18:50.995Z,59.18
2023-03-05T03:19:53.906Z,59.17
2023-03-05T03:20:56.746Z,59.00
2023-03-05T03:21:59.821Z,59.10
2023-03-05T03:23:02.717Z,59.28
2023-03-05T03:24:05.866Z,59.17
2023-03-05T03:25:09.501Z,59.45
2023-03-05T03:26:12.443Z,59.25
2023-03-05T03:27:15.652Z,59.37
2023-03-05T03:28:18.670Z,59.40
2023-03-05T03:29:21.796Z,59.46
2023-03-05T03:30:24.794Z,59.71
2023-03-05T03:31:27.678Z,59.66
2023-03-05T03:32:31.736Z,59.85
2023-03-05T03:33:34.556Z,60.28
2023-03-05T03:34:37.458Z,60.75
2023-03-05T03:35:40.496Z,60.52
2023-03-05T03:36:45.384Z,60.49
2023-03-05T03:37:48.570Z,60.82
2023-03-05T03:38:51.415Z,61.26
2023-03-05T03:39:54.276Z,61.50
2023-03-05T03:40:57.138Z,61.59
2023-03-05T03:42:00.524Z,61.69
2023-03-05T03:43:03.853Z,61.74
2023-03-05T03:44:08.892Z,62.42
2023-03-05T03:45:12.370Z,63.01
2023-03-05T03:46:15.323Z,63.11
2023-03-05T03:47:18.412Z,62.93
2023-03-05T03:48:21.482Z,62.96
2023-03-05T03:49:26.016Z,62.97
2023-03-05T03:50:29.082Z,63.15
2023-03-05T03:51:31.982Z,62.90
2023-03-05T03:52:34.878Z,63.65
2023-03-05T03:53:37.980Z,63.68
2023-03-05T03:54:41.089Z,64.28
2023-03-05T03:55:46.426Z,64.13
2023-03-05T03:56:49.925Z,63.76
2023-03-05T03:57:53.369Z,63.84
2023-03-05T03:58:56.392Z,64.23
2023-03-05T04:00:00.319Z,64.75
2023-03-05T04:01:03.381Z,64.45
2023-03-05T04:02:07.280Z,64.51
2023-03-05T04:03:10.230Z,64.99
2023-03-05T04:04:13.979Z,64.52
2023-03-05T04:05:17.011Z,64.45
2023-03-05T04:06:19.956Z,64.30
2023-03-05T04:07:22.781Z,64.59
2023-03-05T04:08:25.741Z,64.45
2023-03-05T04:09:28.636Z,64.36
2023-03-05T04:10:31.480Z,64.74
2023-03-05T04:11:35.583Z,64.60
2023-03-05T04:12:38.500Z,64.54
2023-03-05T04:13:41.646Z,64.72
2023-03-05T04:14:49.004Z,64.60
2023-03-05T04:15:51.957Z,64.74
2023-03-05T04:16:54.867Z,64.79
2023-03-05T04:17:57.832Z,64.73
2023-03-05T04:19:00.722Z,64.93
2023-03-05T04:20:06.156Z,64.65
2023-03-05T04:21:09.708Z,64.68
2023-03-05T04:22:14.532Z,64.76
2023-03-05T04:23:17.852Z,64.65
2023-03-05T04:24:20.742Z,64.69
2023-03-05T04:25:23.697Z,64.92
2023-03-05T04:26:27.100Z,64.92
2023-03-05T04:27:29.968Z,65.24
2023-03-05T04:28:33.565Z,64.86
2023-03-05T04:29:37.167Z,65.04
2023-03-05T04:30:40.111Z,65.11
2023-03-05T04:31:42.988Z,65.21
2023-03-05T04:32:45.869Z,65.29
2023-03-05T04:33:48.866Z,65.73
2023-03-05T04:34:51.693Z,65.44
2023-03-05T04:35:54.783Z,65.36
2023-03-05T04:36:57.673Z,65.26
2023-03-05T04:38:00.541Z,65.18
2023-03-05T04:39:04.898Z,65.22
2023-03-05T04:40:09.251Z,65.19
2023-03-05T04:41:12.155Z,65.48
2023-03-05T04:42:15.162Z,65.09
2023-03-05T04:43:18.203Z,65.15
2023-03-05T04:44:23.453Z,65.22
2023-03-05T04:45:26.431Z,65.11
2023-03-05T04:46:29.432Z,64.91
2023-03-05T04:47:32.671Z,64.81
2023-03-05T04:48:35.489Z,64.94
2023-03-05T04:49:38.326Z,64.81
2023-03-05T04:50:41.182Z,64.84
2023-03-05T04:51:44.762Z,64.76
2023-03-05T04:52:47.952Z,64.63
2023-03-05T04:53:50.772Z,64.73
2023-03-05T04:54:54.513Z,64.81
2023-03-05T04:55:57.593Z,64.76
2023-03-05T04:57:00.553Z,64.53
2023-03-05T04:58:03.603Z,64.55
2023-03-05T04:59:06.379Z,64.48
2023-03-05T05:00:16.102Z,64.38
2023-03-05T05:01:19.163Z,64.41
2023-03-05T05:02:22.202Z,64.43
2023-03-05T05:03:25.098Z,64.47
2023-03-05T05:04:28.032Z,64.54
2023-03-05T05:05:30.957Z,64.36
2023-03-05T05:06:34.044Z,64.52
2023-03-05T05:07:36.945Z,64.49
2023-03-05T05:08:39.858Z,64.43
2023-03-05T05:09:42.974Z,64.41
2023-03-05T05:10:45.844Z,64.39
2023-03-05T05:11:48.805Z,64.57
2023-03-05T05:12:51.764Z,64.64
2023-03-05T05:13:54.648Z,64.60
2023-03-05T05:15:01.150Z,64.53
2023-03-05T05:16:07.123Z,64.91
2023-03-05T05:17:10.053Z,64.67
2023-03-05T05:18:12.945Z,64.67
2023-03-05T05:19:16.433Z,64.73
2023-03-05T05:20:20.082Z,64.60
2023-03-05T05:21:23.037Z,64.67
2023-03-05T05:22:27.094Z,64.89
2023-03-05T05:23:29.899Z,64.86
2023-03-05T05:24:32.834Z,64.84
2023-03-05T05:25:35.697Z,64.75
2023-03-05T05:26:38.619Z,64.82
2023-03-05T05:27:41.563Z,64.80
2023-03-05T05:28:44.569Z,64.65
2023-03-05T05:29:50.415Z,64.83
2023-03-05T05:30:53.717Z,64.90
2023-03-05T05:31:56.566Z,64.76
2023-03-05T05:32:59.537Z,64.90
2023-03-05T05:34:02.396Z,64.77
2023-03-05T05:35:05.616Z,64.71
2023-03-05T05:36:11.383Z,64.71
2023-03-05T05:37:14.343Z,64.66
2023-03-05T05:38:17.298Z,64.55
2023-03-05T05:39:20.569Z,64.89
2023-03-05T05:40:23.555Z,64.76
2023-03-05T05:41:26.764Z,64.80
2023-03-05T05:42:29.582Z,64.68
2023-03-05T05:43:33.054Z,64.68
2023-03-05T05:44:35.943Z,65.00
2023-03-05T05:45:39.100Z,65.10
2023-03-05T05:46:42.280Z,64.96
2023-03-05T05:47:45.297Z,64.90
2023-03-05T05:48:48.816Z,64.88
2023-03-05T05:49:51.959Z,64.82
2023-03-05T05:50:55.263Z,65.07
2023-03-05T05:51:59.236Z,64.99
2023-03-05T05:53:02.203Z,64.90
2023-03-05T05:54:05.335Z,64.88
2023-03-05T05:55:08.773Z,64.94
2023-03-05T05:56:13.213Z,65.07
2023-03-05T05:57:16.372Z,64.98
2023-03-05T05:58:19.355Z,65.00
2023-03-05T05:59:22.330Z,65.00
2023-03-05T06:00:25.251Z,64.84
2023-03-05T06:01:33.067Z,65.00
2023-03-05T06:02:39.081Z,65.01
2023-03-05T06:03:42.008Z,64.91
2023-03-05T06:04:44.883Z,64.87
2023-03-05T06:05:47.907Z,64.83
2023-03-05T06:06:50.879Z,64.93
2023-03-05T06:07:53.760Z,64.90
2023-03-05T06:08:57.124Z,64.75
2023-03-05T06:10:00.030Z,64.78
2023-03-05T06:11:02.924Z,64.52
2023-03-05T06:12:06.739Z,64.72
2023-03-05T06:13:09.779Z,64.63
2023-03-05T06:14:13.266Z,64.58
2023-03-05T06:15:16.295Z,64.32
2023-03-05T06:16:24.112Z,64.44
2023-03-05T06:17:30.599Z,64.05
2023-03-05T06:18:37.062Z,64.08
2023-03-05T06:19:43.021Z,63.96
2023-03-05T06:20:46.023Z,63.78
2023-03-05T06:21:49.045Z,63.62
2023-03-05T06:22:51.938Z,63.57
2023-03-05T06:23:55.097Z,63.47
2023-03-05T06:24:57.969Z,63.42
2023-03-05T06:26:06.156Z,63.32
2023-03-05T06:27:09.287Z,63.22
2023-03-05T06:28:12.446Z,63.11
2023-03-05T06:29:16.151Z,63.03
2023-03-05T06:30:19.164Z,63.10
2023-03-05T06:31:28.010Z,62.79
2023-03-05T06:32:31.101Z,62.82
2023-03-05T06:33:34.541Z,62.87
2023-03-05T06:34:37.371Z,62.88
2023-03-05T06:35:40.457Z,62.90
2023-03-05T06:36:44.270Z,62.71
2023-03-05T06:37:47.302Z,62.41
2023-03-05T06:38:53.317Z,62.37
2023-03-05T06:39:56.463Z,62.30
2023-03-05T06:41:05.977Z,61.92
2023-03-05T06:42:08.848Z,62.08
2023-03-05T06:43:11.870Z,61.66
2023-03-05T06:44:15.211Z,61.26
2023-03-05T06:45:18.095Z,61.25
2023-03-05T06:46:30.255Z,60.83
2023-03-05T06:47:33.368Z,60.80
2023-03-05T06:48:36.383Z,60.94
2023-03-05T06:49:39.316Z,60.72
2023-03-05T06:50:42.317Z,60.09
2023-03-05T06:51:45.172Z,60.26
2023-03-05T06:52:50.990Z,60.14
2023-03-05T06:53:54.949Z,59.79
2023-03-05T06:54:57.812Z,59.75
2023-03-05T06:56:01.466Z,59.83
2023-03-05T06:57:04.418Z,59.10
2023-03-05T06:58:08.347Z,58.79
2023-03-05T06:59:13.332Z,58.92
2023-03-05T07:00:16.432Z,58.85
2023-03-05T07:01:20.699Z,58.75
2023-03-05T07:02:23.697Z,58.91
2023-03-05T07:03:26.716Z,58.83
2023-03-05T07:04:29.574Z,58.18
2023-03-05T07:05:34.223Z,58.20
2023-03-05T07:06:42.276Z,57.67
2023-03-05T07:07:45.176Z,57.04
2023-03-05T07:08:48.623Z,57.41
2023-03-05T07:09:53.142Z,57.18
2023-03-05T07:10:55.922Z,57.24
2023-03-05T07:11:58.742Z,57.43
2023-03-05T07:13:01.610Z,57.36
2023-03-05T07:14:04.535Z,57.26
2023-03-05T07:15:08.366Z,56.80
2023-03-05T07:16:16.209Z,56.61
2023-03-05T07:17:19.122Z,56.44
2023-03-05T07:18:21.922Z,56.64
2023-03-05T07:19:24.995Z,55.85
2023-03-05T07:20:27.898Z,55.77
2023-03-05T07:21:33.578Z,55.98
2023-03-05T07:22:37.866Z,56.06
2023-03-05T07:23:40.968Z,55.93
2023-03-05T07:24:43.852Z,56.22
2023-03-05T07:25:46.800Z,55.96
2023-03-05T07:26:49.621Z,56.01
2023-03-05T07:27:52.509Z,55.62
2023-03-05T07:28:56.801Z,55.59
2023-03-05T07:29:59.687Z,54.57
2023-03-05T07:31:05.843Z,53.88
2023-03-05T07:32:08.853Z,54.16
2023-03-05T07:33:12.164Z,54.00
2023-03-05T07:34:18.373Z,54.07
2023-03-05T07:35:21.297Z,54.18
2023-03-05T07:36:24.614Z,54.44
2023-03-05T07:37:27.525Z,53.21
2023-03-05T07:38:33.673Z,53.57
2023-03-05T07:39:36.616Z,53.64
2023-03-05T07:40:39.584Z,53.64
2023-03-05T07:41:42.773Z,53.56
2023-03-05T07:42:45.675Z,53.13
2023-03-05T07:43:54.078Z,52.08
2023-03-05T07:44:57.174Z,52.12
2023-03-05T07:46:00.243Z,52.70
2023-03-05T07:47:03.366Z,52.67
2023-03-05T07:48:06.958Z,52.30
2023-03-05T07:49:09.888Z,52.47
2023-03-05T07:50:12.899Z,51.72
2023-03-05T07:51:18.561Z,52.03
2023-03-05T07:52:21.813Z,51.70
2023-03-05T07:53:24.667Z,52.03
2023-03-05T07:54:27.712Z,51.76
2023-03-05T07:55:30.826Z,51.75
2023-03-05T07:56:35.799Z,51.95
2023-03-05T07:57:39.186Z,52.03
2023-03-05T07:58:42.081Z,51.44
2023-03-05T07:59:45.067Z,51.85
2023-03-05T08:00:49.407Z,50.65
2023-03-05T08:01:52.573Z,50.37
2023-03-05T08:02:55.525Z,50.27
2023-03-05T08:03:58.501Z,50.92
2023-03-05T08:05:01.650Z,51.00
2023-03-05T08:06:06.635Z,50.72
2023-03-05T08:07:09.739Z,50.62
2023-03-05T08:08:12.720Z,50.26
2023-03-05T08:09:17.118Z,50.16
2023-03-05T08:10:20.378Z,50.19
2023-03-05T08:11:23.511Z,50.17
2023-03-05T08:12:26.488Z,50.31
2023-03-05T08:13:29.377Z,49.61
2023-03-05T08:14:32.385Z,49.57
2023-03-05T08:15:37.836Z,49.86
2023-03-05T08:16:41.269Z,49.82
2023-03-05T08:17:44.196Z,49.45
2023-03-05T08:18:48.312Z,49.79
2023-03-05T08:19:51.172Z,49.76
2023-03-05T08:20:54.102Z,49.80
2023-03-05T08:21:56.911Z,49.10
2023-03-05T08:22:59.750Z,48.46
2023-03-05T08:24:08.464Z,48.02
2023-03-05T08:25:11.918Z,48.99
2023-03-05T08:26:17.850Z,48.14
2023-03-05T08:27:20.829Z,48.50
2023-03-05T08:28:23.790Z,48.11
2023-03-05T08:29:26.922Z,47.86
2023-03-05T08:30:29.816Z,48.39
2023-03-05T08:31:33.432Z,48.79
2023-03-05T08:32:36.514Z,48.61
2023-03-05T08:33:40.074Z,48.57
2023-03-05T08:34:43.017Z,48.34
2023-03-05T08:35:46.073Z,47.29
2023-03-05T08:36:49.359Z,47.27
2023-03-05T08:37:52.429Z,47.98
2023-03-05T08:38:56.259Z,47.98
2023-03-05T08:39:59.237Z,47.58
2023-03-05T08:41:02.478Z,47.29
2023-03-05T08:42:08.828Z,47.22
2023-03-05T08:43:12.389Z,46.85
2023-03-05T08:44:17.597Z,46.66
2023-03-05T08:45:20.461Z,46.31
2023-03-05T08:46:24.011Z,47.06
2023-03-05T08:47:28.054Z,46.24
2023-03-05T08:48:31.906Z,46.23
2023-03-05T08:49:34.739Z,46.78
2023-03-05T08:50:39.060Z,46.38
2023-03-05T08:51:42.097Z,46.24
2023-03-05T08:52:44.982Z,46.24
2023-03-05T08:53:48.132Z,46.59
2023-03-05T08:54:51.057Z,46.73
2023-03-05T08:55:55.629Z,46.86
2023-03-05T08:56:58.684Z,46.62
2023-03-05T08:58:01.990Z,46.39
2023-03-05T08:59:05.918Z,46.57
2023-03-05T09:00:10.413Z,45.15
2023-03-05T09:01:15.545Z,45.89
2023-03-05T09:02:18.553Z,46.09
2023-03-05T09:03:21.491Z,45.05
2023-03-05T09:04:24.415Z,45.36
2023-03-05T09:05:27.421Z,45.69
2023-03-05T09:06:30.467Z,46.15
2023-03-05T09:07:33.516Z,44.75
2023-03-05T09:08:36.977Z,45.64
2023-03-05T09:09:40.641Z,44.88
2023-03-05T09:10:45.167Z,43.26
2023-03-05T09:11:48.193Z,44.17
2023-03-05T09:12:51.131Z,43.85
2023-03-05T09:13:54.133Z,42.97
2023-03-05T09:14:57.429Z,42.25
2023-03-05T09:16:04.996Z,41.99
2023-03-05T09:17:09.283Z,41.93
2023-03-05T09:18:12.588Z,41.87
2023-03-05T09:19:15.666Z,41.25
2023-03-05T09:20:18.658Z,42.03
2023-03-05T09:21:21.542Z,42.48
2023-03-05T09:22:24.382Z,42.13
2023-03-05T09:23:27.232Z,41.94
2023-03-05T09:24:30.076Z,41.75
2023-03-05T09:25:32.986Z,42.11
2023-03-05T09:26:36.016Z,42.69
2023-03-05T09:27:39.590Z,42.34
2023-03-05T09:28:42.688Z,42.52
2023-03-05T09:29:45.537Z,42.24
2023-03-05T09:30:48.878Z,42.87
2023-03-05T09:31:51.805Z,42.59
2023-03-05T09:32:54.803Z,42.11
2023-03-05T09:33:57.699Z,42.34
2023-03-05T09:35:00.512Z,41.77
2023-03-05T09:36:04.823Z,41.60
2023-03-05T09:37:09.094Z,41.97
2023-03-05T09:38:11.867Z,41.57
2023-03-05T09:39:15.379Z,41.96
2023-03-05T09:40:20.002Z,42.32
2023-03-05T09:41:34.696Z,42.79
2023-03-05T09:43:11.674Z,42.10
2023-03-05T09:44:41.958Z,41.66
2023-03-05T09:46:05.869Z,41.16
2023-03-05T09:47:50.834Z,41.61
2023-03-05T09:49:14.872Z,41.08
2023-03-05T09:50:32.708Z,41.54
2023-03-05T09:51:41.481Z,40.73
2023-03-05T09:52:59.495Z,41.26
2023-03-05T09:54:10.922Z,40.85
2023-03-05T09:55:23.915Z,41.18
2023-03-05T09:56:30.911Z,41.12
2023-03-05T09:57:48.702Z,41.17
2023-03-05T09:58:56.299Z,40.76
2023-03-05T10:00:07.804Z,40.84
2023-03-05T10:01:29.866Z,40.78
2023-03-05T10:02:37.087Z,40.80
2023-03-05T10:04:08.102Z,40.75
2023-03-05T10:05:23.876Z,41.03
2023-03-05T10:06:31.542Z,39.64
2023-03-05T10:07:39.934Z,40.46
2023-03-05T10:08:53.661Z,40.80
2023-03-05T10:10:02.002Z,40.64
2023-03-05T10:11:12.916Z,40.01
2023-03-05T10:12:42.931Z,40.57
2023-03-05T10:13:46.533Z,39.47
2023-03-05T10:14:49.652Z,39.17
2023-03-05T10:15:58.411Z,39.53
2023-03-05T10:17:28.683Z,39.64
2023-03-05T10:18:56.275Z,39.33
2023-03-05T10:20:31.000Z,38.68
2023-03-05T10:21:44.835Z,39.46
2023-03-05T10:23:09.234Z,39.72
2023-03-05T10:24:41.537Z,39.50
2023-03-05T10:26:09.721Z,39.14
2023-03-05T10:27:20.470Z,39.99
2023-03-05T10:28:29.248Z,39.50
2023-03-05T10:30:07.542Z,39.47
2023-03-05T10:31:17.099Z,38.52
2023-03-05T10:32:35.586Z,38.54
2023-03-05T10:34:04.137Z,39.20
2023-03-05T10:35:36.186Z,39.78
2023-03-05T10:36:46.791Z,39.55
2023-03-05T10:38:14.467Z,39.61
2023-03-05T10:39:37.786Z,40.01
2023-03-05T10:40:42.819Z,39.93
2023-03-05T10:42:14.705Z,40.08
2023-03-05T10:43:41.856Z,39.29
2023-03-05T10:44:49.082Z,39.89
2023-03-05T10:45:57.140Z,40.03
2023-03-05T10:47:02.950Z,39.93
2023-03-05T10:48:11.455Z,39.85
2023-03-05T10:49:26.821Z,40.00
2023-03-05T10:50:44.824Z,39.39
2023-03-05T10:51:51.955Z,39.95
2023-03-05T10:53:17.803Z,39.89
2023-03-05T10:54:30.294Z,39.48
2023-03-05T10:55:33.302Z,40.07
2023-03-05T10:56:37.151Z,39.76
2023-03-05T10:57:40.096Z,39.53
2023-03-05T10:58:42.991Z,39.60
2023-03-05T11:00:01.782Z,40.03
2023-03-05T11:01:22.079Z,40.12
2023-03-05T11:02:25.006Z,40.44
2023-03-05T11:04:04.039Z,39.62
2023-03-05T11:05:39.144Z,38.38
2023-03-05T11:06:48.259Z,38.50
2023-03-05T11:07:51.209Z,38.93
2023-03-05T11:08:54.265Z,38.69
2023-03-05T11:10:15.411Z,38.11
2023-03-05T11:11:21.097Z,37.97
2023-03-05T11:12:27.640Z,38.61
2023-03-05T11:13:32.828Z,38.66
2023-03-05T11:14:42.771Z,37.97
2023-03-05T11:16:05.654Z,38.83
2023-03-05T11:17:27.549Z,38.66
2023-03-05T11:18:34.627Z,38.93
2023-03-05T11:19:39.561Z,38.54
2023-03-05T11:20:42.912Z,38.82
2023-03-05T11:22:04.436Z,38.66
2023-03-05T11:23:23.985Z,38.21
2023-03-05T11:24:26.860Z,38.20
2023-03-05T11:25:30.520Z,38.47
2023-03-05T11:26:33.767Z,38.28
2023-03-05T11:27:51.995Z,38.92
2023-03-05T11:29:00.460Z,38.46
2023-03-05T11:30:18.222Z,38.55
2023-03-05T11:31:27.314Z,38.17
2023-03-05T11:32:31.578Z,38.92
2023-03-05T11:33:37.024Z,39.06
2023-03-05T11:34:41.097Z,39.24
2023-03-05T11:35:44.656Z,39.26
2023-03-05T11:37:20.590Z,39.16
2023-03-05T11:38:26.998Z,39.10
2023-03-05T11:39:33.148Z,39.43
2023-03-05T11:40:36.324Z,39.62
2023-03-05T11:41:58.026Z,39.38
2023-03-05T11:43:02.819Z,39.50
2023-03-05T11:44:15.169Z,38.69
2023-03-05T11:45:19.512Z,38.73
2023-03-05T11:46:23.216Z,37.77
2023-03-05T11:47:32.091Z,37.82
2023-03-05T11:48:37.548Z,37.71
2023-03-05T11:49:45.322Z,38.39
2023-03-05T11:50:54.549Z,38.01
2023-03-05T11:52:08.657Z,37.79
2023-03-05T11:53:17.902Z,37.67
2023-03-05T11:54:28.724Z,37.35
2023-03-05T11:55:44.746Z,36.94
2023-03-05T11:56:47.851Z,36.93
2023-03-05T11:57:57.406Z,36.65
2023-03-05T11:59:03.027Z,36.28
2023-03-05T12:00:13.285Z,36.25
2023-03-05T12:01:23.564Z,36.32
2023-03-05T12:02:27.985Z,34.62
2023-03-05T12:03:34.905Z,35.50
2023-03-05T12:04:37.928Z,35.31
2023-03-05T12:05:45.778Z,35.15
2023-03-05T12:06:57.246Z,35.08
2023-03-05T12:08:02.354Z,35.29
2023-03-05T12:09:18.614Z,35.75
2023-03-05T12:10:24.598Z,35.73
2023-03-05T12:11:30.230Z,36.10
2023-03-05T12:12:36.197Z,35.89
2023-03-05T12:13:48.815Z,36.28
2023-03-05T12:14:56.845Z,36.33
2023-03-05T12:16:17.732Z,36.59
2023-03-05T12:17:43.780Z,36.45
2023-03-05T12:19:07.958Z,35.74
2023-03-05T12:20:37.078Z,36.17
2023-03-05T12:21:42.055Z,36.45
2023-03-05T12:22:45.602Z,34.91
2023-03-05T12:24:01.755Z,34.52
2023-03-05T12:25:25.613Z,34.60
2023-03-05T12:26:53.385Z,35.24
2023-03-05T12:27:56.257Z,35.02
2023-03-05T12:28:59.239Z,34.99
2023-03-05T12:30:03.319Z,34.81
2023-03-05T12:31:27.312Z,35.60
2023-03-05T12:32:32.824Z,35.80
2023-03-05T12:33:41.799Z,35.57
2023-03-05T12:34:56.243Z,35.67
2023-03-05T12:36:17.730Z,36.12
2023-03-05T12:37:20.504Z,35.78
2023-03-05T12:38:33.212Z,35.69
2023-03-05T12:39:45.578Z,35.35
2023-03-05T12:40:48.660Z,35.83
2023-03-05T12:41:51.523Z,36.13
2023-03-05T12:42:55.808Z,36.34
2023-03-05T12:44:08.771Z,36.34
2023-03-05T12:45:16.003Z,35.54
2023-03-05T12:46:23.848Z,35.78
2023-03-05T12:47:26.687Z,35.22
2023-03-05T12:48:29.510Z,35.13
2023-03-05T12:49:39.710Z,35.29
2023-03-05T12:50:45.664Z,34.50
2023-03-05T12:51:53.309Z,34.55
2023-03-05T12:53:04.830Z,34.49
2023-03-05T12:54:35.435Z,34.41
2023-03-05T12:55:51.201Z,35.17
2023-03-05T12:56:57.141Z,35.11
2023-03-05T12:58:17.237Z,35.09
2023-03-05T12:59:23.476Z,34.98
2023-03-05T13:00:40.735Z,35.43
2023-03-05T13:01:54.938Z,35.59
2023-03-05T13:03:00.610Z,36.02
2023-03-05T13:04:15.156Z,35.78
2023-03-05T13:05:27.201Z,35.62
2023-03-05T13:06:35.289Z,35.76
2023-03-05T13:07:38.307Z,34.94
2023-03-05T13:08:41.117Z,34.46
2023-03-05T13:09:58.936Z,34.94
2023-03-05T13:11:06.772Z,34.14
2023-03-05T13:12:14.218Z,33.75
2023-03-05T13:13:17.102Z,33.90
2023-03-05T13:14:29.289Z,32.84
2023-03-05T13:15:33.085Z,33.43
2023-03-05T13:16:39.601Z,33.28
2023-03-05T13:17:55.837Z,33.17
2023-03-05T13:19:01.522Z,33.23
2023-03-05T13:20:34.897Z,33.64
2023-03-05T13:21:38.396Z,33.74
2023-03-05T13:22:41.306Z,33.37
2023-03-05T13:23:58.688Z,33.60
2023-03-05T13:25:05.689Z,33.08
2023-03-05T13:26:18.927Z,32.79
2023-03-05T13:27:32.748Z,32.43
2023-03-05T13:28:40.502Z,32.79
2023-03-05T13:29:51.431Z,31.82
2023-03-05T13:31:00.454Z,31.91
2023-03-05T13:32:25.214Z,31.69
2023-03-05T13:33:34.704Z,31.19
2023-03-05T13:34:47.071Z,31.88
2023-03-05T13:35:52.407Z,31.38
2023-03-05T13:37:01.349Z,31.09
2023-03-05T13:38:04.320Z,30.93
2023-03-05T13:39:07.713Z,30.45
2023-03-05T13:40:24.255Z,31.26
2023-03-05T13:41:28.402Z,30.86
2023-03-05T13:44:39.490Z,30.99
2023-03-05T13:45:44.575Z,30.35
2023-03-05T13:46:48.258Z,30.78
2023-03-05T13:47:53.953Z,31.11
2023-03-05T13:48:58.917Z,30.39
2023-03-05T13:50:05.928Z,29.03
2023-03-05T13:51:09.742Z,29.31
2023-03-05T13:52:23.817Z,29.03
2023-03-05T13:53:35.694Z,27.73
2023-03-05T13:54:40.243Z,27.83
2023-03-05T13:55:43.500Z,27.91
2023-03-05T13:56:55.074Z,27.48
2023-03-05T13:57:59.216Z,26.65
2023-03-05T13:59:02.403Z,27.64
2023-03-05T14:00:24.796Z,26.71
2023-03-05T14:01:44.755Z,27.84
2023-03-05T14:02:47.605Z,27.81
2023-03-05T14:03:52.884Z,27.82
2023-03-05T14:04:56.376Z,27.80
2023-03-05T14:06:00.956Z,27.75
2023-03-05T14:07:07.778Z,27.19
2023-03-05T14:08:21.395Z,26.55
2023-03-05T14:09:27.474Z,26.96
2023-03-05T14:10:38.391Z,26.66
2023-03-05T14:11:41.309Z,26.34
2023-03-05T14:12:44.368Z,27.16
2023-03-05T14:13:48.972Z,26.88
2023-03-05T14:14:51.972Z,26.35
2023-03-05T14:16:05.271Z,25.91
2023-03-05T14:17:30.242Z,26.96